Time;durP1;ratioP1;P1;durP2;ratioP2;P2;SDS_P1;SDS_P2;PMS_P1;PMS_P2;Temp;Humidity;BMP_temperature;BMP_pressure;BME280_temperature;BME280_humidity;BME280_pressure;Samples;Min_cycle;Max_cycle;Signal;HPM_P1;HPM_P2
2022/06/14 00:01:20;;;;;;;;;;;;;;;21.26;51.83;95098.47;2057921;28;1542;-56
2022/06/14 00:02:22;;;;;;;;;;;;;;;21.27;51.88;95104.63;2058237;28;1498;-55
2022/06/14 00:03:27;;;;;;;;;;;;;;;21.25;51.71;95102.16;2058788;28;1583;-55
2022/06/14 00:04:29;;;;;;;;;;;;;;;21.28;51.86;95112.41;2050969;28;1006;-54
2022/06/14 00:05:32;;;;;;;;;;;;;;;21.21;51.99;95107.09;2053222;28;1720;-53
2022/06/14 00:06:35;;;;;;;;;;;;;;;21.18;51.75;95106.72;2058047;28;1918;-56
2022/06/14 00:07:37;;;;;;;;;;;;;;;21.16;51.77;95104.22;2058578;28;1568;-51
2022/06/14 00:08:40;;;;;;;;;;;;;;;21.15;51.75;95110.59;2058909;28;1118;-56
2022/06/14 00:09:42;;;;;;;;;;;;;;;21.16;51.87;95106.91;2056652;28;1488;-55
2022/06/14 00:10:45;;;;;;;;;;;;;;;21.17;51.93;95105.91;2051776;28;1367;-58
2022/06/14 00:11:48;;;;;;;;;;;;;;;21.18;51.72;95107.53;2057390;28;1817;-53
2022/06/14 00:12:51;;;;;;;;;;;;;;;21.16;51.78;95104.22;2059081;28;1035;-55
2022/06/14 00:13:53;;;;;;;;;;;;;;;21.15;52.07;95112.47;2058805;28;1837;-55
2022/06/14 00:14:57;;;;;;;;;;;;;;;21.12;51.89;95112.91;2058357;28;1046;-55
2022/06/14 00:15:58;;;;;;;;;;;;;;;21.10;51.94;95110.41;2057734;28;1807;-54
2022/06/14 00:17:01;;;;;;;;;;;;;;;21.09;52.05;95106.13;2059016;28;1079;-56
2022/06/14 00:18:03;;;;;;;;;;;;;;;21.09;51.94;95110.66;2058659;28;1709;-53
2022/06/14 00:19:06;;;;;;;;;;;;;;;21.09;51.81;95105.31;2059081;28;1052;-55
2022/06/14 00:20:09;;;;;;;;;;;;;;;21.08;51.97;95107.13;2058685;28;1778;-56
2022/06/14 00:21:12;;;;;;;;;;;;;;;21.08;51.88;95104.47;2057535;28;1418;-55
2022/06/14 00:22:14;;;;;;;;;;;;;;;21.10;52.14;95110.41;2048640;28;1498;-56
2022/06/14 00:23:17;;;;;;;;;;;;;;;21.11;51.97;95106.72;2057968;28;1485;-55
2022/06/14 00:24:19;;;;;;;;;;;;;;;21.12;51.87;95102.22;2058349;28;1724;-56
2022/06/14 00:25:23;;;;;;;;;;;;;;;21.13;52.00;95107.31;2058728;28;962;-55
2022/06/14 00:26:26;;;;;;;;;;;;;;;21.16;52.06;95103.41;2057544;28;1906;-55
2022/06/14 00:27:30;;;;;;;;;;;;;;;21.15;52.08;95107.94;2058886;28;1081;-57
2022/06/14 00:28:33;;;;;;;;;;;;;;;21.15;51.85;95102.59;2056178;28;1563;-55
2022/06/14 00:29:35;;;;;;;;;;;;;;;21.17;51.88;95111.25;2054872;28;1560;-58
2022/06/14 00:30:38;;;;;;;;;;;;;;;21.16;51.77;95098.06;2058878;28;1184;-58
2022/06/14 00:31:40;;;;;;;;;;;;;;;21.19;51.87;95111.03;2057667;28;1460;-55
2022/06/14 00:32:43;;;;;;;;;;;;;;;21.19;51.79;95114.50;2057019;28;1497;-58
2022/06/14 00:33:45;;;;;;;;;;;;;;;21.18;51.99;95104.88;2051325;28;1182;-56
2022/06/14 00:34:48;;;;;;;;;;;;;;;21.18;51.74;95104.88;2058052;28;1712;-55
2022/06/14 00:35:57;;;;;;;;;;;;;;;21.19;52.02;95103.81;2058823;28;1019;-56
2022/06/14 00:36:59;;;;;;;;;;;;;;;21.18;51.65;95106.72;2050627;28;1015;-53
2022/06/14 00:38:02;;;;;;;;;;;;;;;21.15;51.66;95110.59;2050929;28;1448;-58
2022/06/14 00:39:05;;;;;;;;;;;;;;;21.11;51.79;95111.22;2058242;28;1660;-55
2022/06/14 00:40:09;;;;;;;;;;;;;;;21.10;51.74;95104.25;2058175;28;1465;-55
2022/06/14 00:41:21;;;;;;;;;;;;;;;21.07;51.93;95102.03;2058737;28;1122;-55
2022/06/14 00:42:23;;;;;;;;;;;;;;;21.11;52.15;95095.22;2057414;28;1495;-54
2022/06/14 00:43:29;;;;;;;;;;;;;;;21.14;52.06;95102.78;2058640;28;1110;-56
2022/06/14 00:44:31;;;;;;;;;;;;;;;21.16;51.85;95100.75;2052474;28;1460;-56
2022/06/14 00:45:52;;;;;;;;;;;;;;;21.16;51.70;95106.91;2053666;28;1759;-55
2022/06/14 00:46:57;;;;;;;;;;;;;;;21.11;51.75;95104.03;2056918;28;1985;-56
2022/06/14 00:48:01;;;;;;;;;;;;;;;21.11;51.80;95112.06;2058408;28;1712;-54
2022/06/14 00:49:05;;;;;;;;;;;;;;;21.11;51.95;95111.22;2057986;28;1533;-55
2022/06/14 00:50:13;;;;;;;;;;;;;;;21.09;51.91;95110.66;2058795;28;1078;-56
2022/06/14 00:51:18;;;;;;;;;;;;;;;21.09;51.73;95108.78;2057879;28;1508;-55
2022/06/14 00:52:24;;;;;;;;;;;;;;;21.09;51.94;95111.47;2058382;28;1678;-55
2022/06/14 00:53:28;;;;;;;;;;;;;;;21.11;51.74;95111.22;2058391;28;1389;-55
2022/06/14 00:54:33;;;;;;;;;;;;;;;21.09;51.87;95111.47;2058701;28;1315;-55
2022/06/14 00:55:37;;;;;;;;;;;;;;;21.09;52.06;95111.47;2053928;28;1051;-57
2022/06/14 00:56:43;;;;;;;;;;;;;;;21.10;52.06;95113.09;2052524;28;1469;-56
2022/06/14 00:57:48;;;;;;;;;;;;;;;21.11;51.70;95106.72;2057689;28;1556;-54
2022/06/14 00:58:54;;;;;;;;;;;;;;;21.08;51.77;95111.66;2058586;28;1113;-55
2022/06/14 00:59:59;;;;;;;;;;;;;;;21.11;52.04;95120.06;2058370;28;1153;-56
2022/06/14 01:01:05;;;;;;;;;;;;;;;21.12;52.15;95119.06;2058676;28;1045;-55
2022/06/14 01:02:13;;;;;;;;;;;;;;;21.14;51.97;95116.16;2057886;28;1520;-53
2022/06/14 01:03:17;;;;;;;;;;;;;;;21.15;52.11;95113.28;2058139;28;1391;-55
2022/06/14 01:04:22;;;;;;;;;;;;;;;21.15;52.03;95113.28;2058516;28;1078;-56
2022/06/14 01:05:25;;;;;;;;;;;;;;;21.19;51.97;95119.03;2058346;28;1109;-53
2022/06/14 01:06:31;;;;;;;;;;;;;;;21.18;52.22;95107.53;2057712;28;1757;-58
2022/06/14 01:07:36;;;;;;;;;;;;;;;21.17;51.74;95111.25;2050460;28;1993;-59
2022/06/14 01:08:41;;;;;;;;;;;;;;;21.13;51.69;95112.66;2058182;28;1822;-59
2022/06/14 01:09:45;;;;;;;;;;;;;;;21.10;51.94;95110.41;2058733;28;1026;-58
2022/06/14 01:10:48;;;;;;;;;;;;;;;21.10;52.00;95109.59;2057361;28;1562;-58
2022/06/14 01:11:52;;;;;;;;;;;;;;;21.07;52.12;95105.50;2058028;28;1034;-60
2022/06/14 01:12:55;;;;;;;;;;;;;;;21.08;52.31;95104.47;2058574;28;1122;-60
2022/06/14 01:14:00;;;;;;;;;;;;;;;21.08;52.05;95098.31;2058176;28;1098;-60
2022/06/14 01:15:04;;;;;;;;;;;;;;;21.07;52.14;95104.69;2058901;28;1093;-60
2022/06/14 01:16:07;;;;;;;;;;;;;;;21.05;52.19;95102.22;2057404;28;1478;-64
2022/06/14 01:17:11;;;;;;;;;;;;;;;21.07;51.93;95102.84;2050738;28;1677;-63
2022/06/14 01:18:15;;;;;;;;;;;;;;;21.06;51.73;95097.69;2047782;29;1082;-59
2022/06/14 01:19:18;;;;;;;;;;;;;;;21.07;52.04;95100.16;2045356;28;1083;-64
2022/06/14 01:20:23;;;;;;;;;;;;;;;21.06;51.91;95098.53;2050353;28;1484;-63
2022/06/14 01:21:25;;;;;;;;;;;;;;;21.05;51.73;95096.06;2058311;28;1076;-68
2022/06/14 01:22:31;;;;;;;;;;;;;;;21.06;51.82;95100.34;2057631;28;1499;-68
2022/06/14 01:23:33;;;;;;;;;;;;;;;21.05;51.50;95102.22;2058379;28;1018;-68
2022/06/14 01:24:37;;;;;;;;;;;;;;;21.04;51.71;95105.94;2058449;28;1181;-67
2022/06/14 01:25:41;;;;;;;;;;;;;;;21.05;51.88;95106.75;2058227;28;1129;-68
2022/06/14 01:26:44;;;;;;;;;;;;;;;21.00;51.60;95105.53;2057317;28;1522;-66
2022/06/14 01:27:47;;;;;;;;;;;;;;;20.99;51.79;95108.41;2058225;28;1906;-67
2022/06/14 01:28:52;;;;;;;;;;;;;;;20.94;51.63;95105.56;2057365;28;1546;-66
2022/06/14 01:29:59;;;;;;;;;;;;;;;20.88;51.88;95103.72;2054009;28;1018;-66
2022/06/14 01:31:03;;;;;;;;;;;;;;;20.86;51.77;95101.28;2051197;28;1446;-66
2022/06/14 01:32:07;;;;;;;;;;;;;;;20.86;51.74;95108.44;2058603;28;1090;-66
2022/06/14 01:33:13;;;;;;;;;;;;;;;20.87;51.75;95100.25;2056957;28;1515;-62
2022/06/14 01:34:16;;;;;;;;;;;;;;;20.87;51.61;95110.13;2057860;28;1637;-63
2022/06/14 01:35:20;;;;;;;;;;;;;;;20.87;51.75;95099.44;2058472;28;1037;-64
2022/06/14 01:36:24;;;;;;;;;;;;;;;20.86;51.55;95100.44;2056899;28;1468;-66
2022/06/14 01:37:26;;;;;;;;;;;;;;;20.82;51.75;95107.25;2050482;28;1049;-66
2022/06/14 01:38:30;;;;;;;;;;;;;;;20.78;51.73;95107.66;2050153;28;1160;-64
2022/06/14 01:39:32;;;;;;;;;;;;;;;20.78;51.80;95104.19;2051488;28;1531;-66
2022/06/14 01:40:41;;;;;;;;;;;;;;;20.75;51.96;95102.75;2058301;28;1113;-65
2022/06/14 01:41:49;;;;;;;;;;;;;;;20.75;52.00;95108.09;2049078;28;1188;-66
2022/06/14 01:43:08;;;;;;;;;;;;;;;20.74;52.11;95109.13;2057972;28;1739;-65
2022/06/14 01:44:20;;;;;;;;;;;;;;;20.73;51.91;95107.47;2058195;28;1006;-66
2022/06/14 01:45:27;;;;;;;;;;;;;;;20.68;51.85;95107.28;2058352;28;1153;-65
2022/06/14 01:46:31;;;;;;;;;;;;;;;20.65;52.25;95113.03;2055932;28;1451;-62
2022/06/14 01:47:37;;;;;;;;;;;;;;;20.70;52.13;95110.56;2058184;28;1098;-66
2022/06/14 01:48:45;;;;;;;;;;;;;;;20.69;52.32;95108.13;2058613;28;1128;-60
2022/06/14 01:52:49;;;;;;;;;;;;;;;20.62;52.43;95105.44;2052659;28;1804;-60
2022/06/14 01:53:57;;;;;;;;;;;;;;;20.60;52.45;95109.34;2053530;28;1176;-60
2022/06/14 01:55:06;;;;;;;;;;;;;;;20.63;52.41;95112.44;2058372;28;1184;-57
2022/06/14 01:56:11;;;;;;;;;;;;;;;20.66;52.67;95112.03;2057223;28;1572;-60
2022/06/14 01:57:16;;;;;;;;;;;;;;;20.64;52.71;95111.41;2050483;28;1053;-60
2022/06/14 01:58:21;;;;;;;;;;;;;;;20.67;52.79;95111.00;2049912;28;1008;-59
2022/06/14 01:59:27;;;;;;;;;;;;;;;20.61;52.68;95116.34;2050290;28;1169;-60
2022/06/14 02:00:30;;;;;;;;;;;;;;;20.53;53.00;95114.72;2053056;28;1677;-60
2022/06/14 02:01:36;;;;;;;;;;;;;;;20.49;53.20;95113.50;2058286;28;1094;-59
2022/06/14 02:02:41;;;;;;;;;;;;;;;20.48;53.58;95117.19;2058013;28;1768;-58
2022/06/14 02:05:11;;;;;;;;;;;;;;;20.46;53.73;95117.41;2053439;28;1470;-58
2022/06/14 02:06:17;;;;;;;;;;;;;;;20.43;53.89;95117.84;2057020;28;1508;-59
2022/06/14 02:07:24;;;;;;;;;;;;;;;20.41;54.03;95117.22;2052724;28;1500;-59
2022/06/14 02:08:30;;;;;;;;;;;;;;;20.45;54.01;95121.09;2057908;28;1911;-64
2022/06/14 02:09:39;;;;;;;;;;;;;;;20.48;53.80;95122.53;2058272;28;1003;-60
2022/06/14 02:10:45;;;;;;;;;;;;;;;20.49;53.90;95116.19;2058062;28;1164;-59
2022/06/14 02:11:48;;;;;;;;;;;;;;;20.51;53.86;95122.09;2058219;28;1077;-59
2022/06/14 02:12:52;;;;;;;;;;;;;;;20.50;54.08;95120.47;2057878;28;1780;-59
2022/06/14 02:13:58;;;;;;;;;;;;;;;20.60;53.95;95115.53;2057759;28;1374;-59
2022/06/14 02:15:01;;;;;;;;;;;;;;;20.66;53.83;95120.03;2054963;28;1480;-59
2022/06/14 02:16:09;;;;;;;;;;;;;;;20.63;53.62;95116.94;2051362;28;1589;-59
2022/06/14 02:17:13;;;;;;;;;;;;;;;20.66;53.74;95124.53;2055612;28;1671;-58
2022/06/14 02:18:19;;;;;;;;;;;;;;;20.59;53.69;95115.75;2058208;28;1062;-59
2022/06/14 02:19:24;;;;;;;;;;;;;;;20.55;54.06;95110.00;2057411;28;1523;-58
2022/06/14 02:20:29;;;;;;;;;;;;;;;20.52;54.18;95113.91;2057729;28;994;-59
2022/06/14 02:21:33;;;;;;;;;;;;;;;20.49;54.17;95111.66;2057166;28;1524;-56
2022/06/14 02:22:37;;;;;;;;;;;;;;;20.48;54.00;95111.84;2056552;28;1704;-59
2022/06/14 02:23:41;;;;;;;;;;;;;;;20.47;54.20;95111.03;2058081;28;1761;-58
2022/06/14 02:24:48;;;;;;;;;;;;;;;20.49;54.19;95113.50;2057969;28;1113;-58
2022/06/14 02:25:52;;;;;;;;;;;;;;;20.49;54.32;95121.53;2058152;28;963;-58
2022/06/14 02:26:58;;;;;;;;;;;;;;;20.54;54.32;95114.53;2051596;28;1710;-58
2022/06/14 02:28:02;;;;;;;;;;;;;;;20.57;54.11;95118.59;2054509;28;1204;-60
2022/06/14 02:29:13;;;;;;;;;;;;;;;20.57;54.21;95126.59;2057832;28;1982;-59
2022/06/14 02:30:16;;;;;;;;;;;;;;;20.56;54.24;95120.47;2057411;28;1492;-59
2022/06/14 02:31:22;;;;;;;;;;;;;;;20.56;54.19;95119.63;2057866;28;1164;-58
2022/06/14 02:32:26;;;;;;;;;;;;;;;20.59;54.08;95123.75;2058184;28;1191;-59
2022/06/14 02:33:34;;;;;;;;;;;;;;;20.59;53.91;95126.41;2057572;28;1725;-58
2022/06/14 02:34:39;;;;;;;;;;;;;;;20.61;53.92;95132.38;2058052;28;1110;-58
2022/06/14 02:35:47;;;;;;;;;;;;;;;20.61;53.71;95127.03;2057469;28;1102;-57
2022/06/14 02:36:51;;;;;;;;;;;;;;;20.58;53.18;95132.78;2056319;28;1470;-56
2022/06/14 02:37:57;;;;;;;;;;;;;;;20.56;53.05;95133.00;2053249;28;1157;-59
2022/06/14 02:39:02;;;;;;;;;;;;;;;20.50;53.15;95134.66;2051620;28;1508;-59
2022/06/14 02:40:09;;;;;;;;;;;;;;;20.50;53.16;95128.50;2057902;28;1160;-58
2022/06/14 02:41:15;;;;;;;;;;;;;;;20.51;53.31;95138.13;2056301;28;1859;-59
2022/06/14 02:42:19;;;;;;;;;;;;;;;20.47;52.77;95136.91;2057972;28;1117;-58
2022/06/14 02:43:25;;;;;;;;;;;;;;;20.45;52.97;95133.63;2057646;28;1076;-59
2022/06/14 02:44:31;;;;;;;;;;;;;;;20.46;52.71;95151.25;2056327;28;1499;-59
2022/06/14 02:45:35;;;;;;;;;;;;;;;20.42;52.87;95150.06;2057907;28;1125;-58
2022/06/14 02:46:47;;;;;;;;;;;;;;;20.43;52.75;95143.69;2057793;28;1055;-55
2022/06/14 02:47:53;;;;;;;;;;;;;;;20.47;52.73;95147.59;2057620;28;1165;-58
2022/06/14 02:48:58;;;;;;;;;;;;;;;20.42;52.67;95150.06;2057615;28;1985;-58
2022/06/14 02:50:04;;;;;;;;;;;;;;;20.39;52.70;95155.81;2048961;28;1313;-58
2022/06/14 02:51:08;;;;;;;;;;;;;;;20.38;52.87;95151.50;2056565;28;1536;-58
2022/06/14 02:52:13;;;;;;;;;;;;;;;20.36;52.91;95158.84;2055835;28;1481;-59
2022/06/14 02:53:17;;;;;;;;;;;;;;;20.31;52.98;95160.28;2057880;28;1666;-57
2022/06/14 02:54:23;;;;;;;;;;;;;;;20.29;52.99;95162.34;2056868;28;1472;-59
2022/06/14 02:55:29;;;;;;;;;;;;;;;20.32;52.98;95166.47;2057727;28;1105;-58
2022/06/14 02:56:35;;;;;;;;;;;;;;;20.38;53.11;95164.84;2056728;28;1571;-58
2022/06/14 02:57:38;;;;;;;;;;;;;;;20.43;52.78;95162.34;2057425;28;1014;-59
2022/06/14 02:58:46;;;;;;;;;;;;;;;20.44;53.05;95158.69;2057751;28;1090;-58
2022/06/14 02:59:50;;;;;;;;;;;;;;;20.47;53.11;95159.09;2056786;28;1601;-57
2022/06/14 03:00:59;;;;;;;;;;;;;;;20.51;52.79;95159.47;2052194;28;1881;-58
2022/06/14 03:02:03;;;;;;;;;;;;;;;20.60;52.36;95158.25;2053630;28;1588;-60
2022/06/14 03:03:08;;;;;;;;;;;;;;;20.66;52.24;95162.75;2057647;28;1102;-60
2022/06/14 03:04:12;;;;;;;;;;;;;;;20.71;51.93;95167.47;2057799;28;1020;-60
2022/06/14 03:05:19;;;;;;;;;;;;;;;20.70;51.98;95161.31;2057277;28;1086;-60
2022/06/14 03:06:26;;;;;;;;;;;;;;;20.74;52.08;95165.22;2057789;28;1069;-60
2022/06/14 03:07:33;;;;;;;;;;;;;;;20.76;52.04;95168.47;2057300;28;1042;-60
2022/06/14 03:08:37;;;;;;;;;;;;;;;20.77;52.00;95169.28;2057781;28;1117;-59
2022/06/14 03:09:42;;;;;;;;;;;;;;;20.79;52.24;95168.06;2057603;28;1907;-59
2022/06/14 03:11:01;;;;;;;;;;;;;;;20.83;52.10;95164.97;2057755;28;1098;-64
2022/06/14 03:12:12;;;;;;;;;;;;;;;20.95;51.95;95165.97;2046322;28;1117;-60
2022/06/14 03:13:20;;;;;;;;;;;;;;;20.95;51.91;95168.66;2052619;28;1649;-60
2022/06/14 03:14:26;;;;;;;;;;;;;;;20.98;51.76;95168.22;2057791;28;1093;-60
2022/06/14 03:15:31;;;;;;;;;;;;;;;20.94;51.72;95166.97;2057850;28;1030;-59
2022/06/14 03:16:36;;;;;;;;;;;;;;;20.87;51.61;95152.84;2057849;28;1033;-58
2022/06/14 03:17:44;;;;;;;;;;;;;;;20.81;51.71;95164.38;2057441;28;1089;-59
2022/06/14 03:18:51;;;;;;;;;;;;;;;20.82;51.67;95160.66;2057604;28;1184;-59
2022/06/14 03:19:59;;;;;;;;;;;;;;;20.82;51.74;95168.66;2056761;28;1477;-60
2022/06/14 03:21:08;;;;;;;;;;;;;;;20.82;51.99;95166.00;2057604;28;1781;-57
2022/06/14 03:22:17;;;;;;;;;;;;;;;20.81;51.79;95164.38;2052317;28;1547;-59
2022/06/14 03:23:23;;;;;;;;;;;;;;;20.81;51.94;95170.53;2052782;28;1724;-56
2022/06/14 03:24:30;;;;;;;;;;;;;;;20.82;51.95;95164.16;2044824;28;1506;-60
2022/06/14 03:25:36;;;;;;;;;;;;;;;20.80;51.74;95171.56;2050802;28;1549;-60
2022/06/14 03:26:46;;;;;;;;;;;;;;;20.84;51.70;95174.63;2057627;28;1594;-57
2022/06/14 03:27:52;;;;;;;;;;;;;;;20.79;51.87;95178.72;2055775;28;1489;-60
2022/06/14 03:28:56;;;;;;;;;;;;;;;20.76;51.86;95171.13;2057643;28;1068;-60
2022/06/14 03:30:00;;;;;;;;;;;;;;;20.77;51.88;95174.63;2051921;28;1907;-59
2022/06/14 03:31:06;;;;;;;;;;;;;;;20.76;51.80;95173.00;2056878;28;1812;-59
2022/06/14 03:32:12;;;;;;;;;;;;;;;20.76;51.82;95168.47;2057169;28;2182;-59
2022/06/14 03:33:18;;;;;;;;;;;;;;;20.76;51.68;95168.47;2057120;28;1303;-58
2022/06/14 03:34:23;;;;;;;;;;;;;;;20.79;51.72;95168.06;2057323;28;1169;-59
2022/06/14 03:35:29;;;;;;;;;;;;;;;20.78;51.75;95161.06;2050822;28;1199;-59
2022/06/14 03:36:32;;;;;;;;;;;;;;;20.76;51.68;95152.44;2056951;28;1300;-59
2022/06/14 03:37:34;;;;;;;;;;;;;;;20.76;51.58;95163.13;2053641;28;1527;-58
2022/06/14 03:38:40;;;;;;;;;;;;;;;20.82;51.14;95152.66;2058806;28;1165;-59
2022/06/14 03:39:44;;;;;;;;;;;;;;;20.78;51.56;95153.06;2059215;28;1090;-59
2022/06/14 03:40:47;;;;;;;;;;;;;;;20.76;51.66;95151.63;2056628;28;1545;-58
2022/06/14 03:41:51;;;;;;;;;;;;;;;20.76;52.15;95155.13;2057555;28;1529;-57
2022/06/14 03:42:55;;;;;;;;;;;;;;;20.79;52.56;95149.34;2058774;28;1011;-58
2022/06/14 03:44:00;;;;;;;;;;;;;;;20.81;52.92;95159.03;2058338;28;1512;-59
2022/06/14 03:45:07;;;;;;;;;;;;;;;20.83;53.20;95156.94;2051156;28;1385;-59
2022/06/14 03:46:11;;;;;;;;;;;;;;;20.83;52.89;95154.28;2053162;28;1554;-59
2022/06/14 03:47:19;;;;;;;;;;;;;;;20.73;52.95;95158.22;2046551;28;1428;-57
2022/06/14 03:48:21;;;;;;;;;;;;;;;21.04;52.93;95162.03;2058003;28;1693;-60
2022/06/14 03:49:25;;;;;;;;;;;;;;;21.21;51.75;95159.75;2056905;28;1996;-61
2022/06/14 03:50:29;;;;;;;;;;;;;;;21.13;52.17;95163.44;2052371;28;1660;-62
2022/06/14 03:51:39;;;;;;;;;;;;;;;20.89;52.44;95156.94;2050790;28;1073;-60
2022/06/14 03:53:05;;;;;;;;;;;;;;;20.82;53.16;95161.47;2050566;28;1117;-60
2022/06/14 03:54:15;;;;;;;;;;;;;;;20.74;53.34;95167.88;2051810;28;1607;-59
2022/06/14 03:55:26;;;;;;;;;;;;;;;20.73;53.67;95166.22;2055325;28;1492;-59
2022/06/14 03:56:32;;;;;;;;;;;;;;;20.76;53.86;95167.66;2050313;28;1585;-56
2022/06/14 03:57:47;;;;;;;;;;;;;;;20.75;53.69;95166.84;2052296;28;1502;-59
2022/06/14 03:59:01;;;;;;;;;;;;;;;20.71;53.80;95168.28;2056631;28;1423;-58
2022/06/14 04:00:08;;;;;;;;;;;;;;;20.71;54.18;95170.94;2055544;28;1971;-59
2022/06/14 04:01:13;;;;;;;;;;;;;;;20.73;54.09;95168.88;2051836;28;1539;-58
2022/06/14 04:02:17;;;;;;;;;;;;;;;20.73;54.02;95168.88;2056826;28;1833;-60
2022/06/14 04:03:29;;;;;;;;;;;;;;;20.75;54.16;95163.34;2055067;28;1482;-59
2022/06/14 04:04:35;;;;;;;;;;;;;;;20.73;54.03;95157.41;2055431;28;1740;-58
2022/06/14 04:05:52;;;;;;;;;;;;;;;20.70;53.85;95168.50;2053849;28;1102;-59
2022/06/14 04:06:58;;;;;;;;;;;;;;;20.68;54.61;95168.69;2047009;28;1806;-57
2022/06/14 04:08:07;;;;;;;;;;;;;;;20.72;55.05;95166.44;2049602;28;1137;-59
2022/06/14 04:09:18;;;;;;;;;;;;;;;20.70;54.71;95171.16;2041632;28;1219;-59
2022/06/14 04:10:26;;;;;;;;;;;;;;;20.71;55.34;95181.63;2054896;28;1931;-59
2022/06/14 04:11:33;;;;;;;;;;;;;;;20.71;55.10;95176.28;2058374;28;1259;-59
2022/06/14 04:12:42;;;;;;;;;;;;;;;20.74;55.47;95175.88;2058761;28;1081;-58
2022/06/14 04:13:47;;;;;;;;;;;;;;;20.93;54.80;95173.38;2058371;28;1756;-58
2022/06/14 04:15:01;;;;;;;;;;;;;;;20.96;54.52;95175.63;2058291;28;1089;-59
2022/06/14 04:16:07;;;;;;;;;;;;;;;21.08;54.25;95179.28;2058098;28;1717;-60
2022/06/14 04:17:15;;;;;;;;;;;;;;;20.94;55.44;95183.00;2053806;28;1530;-61
2022/06/14 04:18:38;;;;;;;;;;;;;;;20.84;56.11;95183.47;2054564;28;1554;-54
2022/06/14 04:19:47;;;;;;;;;;;;;;;20.71;56.26;95181.63;2055842;28;1783;-58
2022/06/14 04:20:53;;;;;;;;;;;;;;;20.63;57.02;95171.19;2046476;28;1772;-59
2022/06/14 04:21:58;;;;;;;;;;;;;;;20.54;56.46;95183.94;2055225;28;1753;-58
2022/06/14 04:23:04;;;;;;;;;;;;;;;20.49;56.37;95182.91;2056553;28;1753;-61
2022/06/14 04:24:12;;;;;;;;;;;;;;;20.42;56.40;95182.06;2055586;28;1894;-60
2022/06/14 04:25:17;;;;;;;;;;;;;;;20.35;56.66;95179.41;2056291;28;1704;-61
2022/06/14 04:26:23;;;;;;;;;;;;;;;20.37;56.84;95190.69;2050037;28;1165;-58
2022/06/14 04:27:30;;;;;;;;;;;;;;;20.36;56.92;95185.53;2049372;28;1503;-61
2022/06/14 04:28:36;;;;;;;;;;;;;;;20.37;57.12;95188.03;2057023;28;1697;-59
2022/06/14 04:29:45;;;;;;;;;;;;;;;20.43;57.31;95189.06;2058239;28;1106;-59
2022/06/14 04:30:53;;;;;;;;;;;;;;;20.46;56.90;95188.63;2051314;28;1903;-60
2022/06/14 04:31:58;;;;;;;;;;;;;;;20.43;56.37;95197.06;2045940;28;1490;-57
2022/06/14 04:33:03;;;;;;;;;;;;;;;20.34;56.67;95201.75;2057106;28;1749;-61
2022/06/14 04:34:09;;;;;;;;;;;;;;;20.40;56.79;95195.63;2054695;28;1687;-61
2022/06/14 04:35:13;;;;;;;;;;;;;;;20.37;56.95;95195.22;2058499;28;1462;-60
2022/06/14 04:36:17;;;;;;;;;;;;;;;20.34;56.77;95202.59;2057748;28;1222;-56
2022/06/14 04:37:24;;;;;;;;;;;;;;;20.31;56.20;95202.97;2048292;28;1294;-60
2022/06/14 04:38:31;;;;;;;;;;;;;;;20.25;56.56;95203.81;2056906;28;1801;-59
2022/06/14 04:39:36;;;;;;;;;;;;;;;20.23;57.08;95213.88;2058307;28;1689;-60
2022/06/14 04:40:41;;;;;;;;;;;;;;;20.27;56.92;95211.63;2057525;28;1716;-59
2022/06/14 04:41:47;;;;;;;;;;;;;;;20.29;56.90;95210.38;2058530;28;1002;-60
2022/06/14 04:42:52;;;;;;;;;;;;;;;20.36;57.19;95214.91;2054138;28;1595;-59
2022/06/14 04:43:58;;;;;;;;;;;;;;;20.32;57.39;95212.66;2052359;28;1641;-60
2022/06/14 04:45:04;;;;;;;;;;;;;;;20.27;57.26;95216.94;2058868;28;1099;-60
2022/06/14 04:46:11;;;;;;;;;;;;;;;20.23;57.55;95213.03;2058666;28;1102;-60
2022/06/14 04:47:17;;;;;;;;;;;;;;;20.23;57.57;95213.88;2058840;28;1072;-60
2022/06/14 04:48:23;;;;;;;;;;;;;;;20.24;57.45;95218.19;2058681;28;1078;-56
2022/06/14 04:49:29;;;;;;;;;;;;;;;20.21;57.06;95212.44;2058558;28;1007;-60
2022/06/14 04:50:33;;;;;;;;;;;;;;;20.23;57.00;95216.56;2058876;28;1914;-60
2022/06/14 04:51:40;;;;;;;;;;;;;;;20.24;57.53;95217.38;2058530;28;1173;-56
2022/06/14 04:52:45;;;;;;;;;;;;;;;20.34;57.56;95223.09;2058774;28;1116;-58
2022/06/14 04:53:52;;;;;;;;;;;;;;;20.36;57.87;95220.25;2056871;28;1366;-55
2022/06/14 04:55:09;;;;;;;;;;;;;;;20.33;57.40;95216.94;2053445;28;1371;-60
2022/06/14 04:56:14;;;;;;;;;;;;;;;20.31;57.76;95219.00;2058386;28;1280;-61
2022/06/14 04:57:20;;;;;;;;;;;;;;;20.36;58.02;95212.22;2058796;28;1009;-59
2022/06/14 04:58:25;;;;;;;;;;;;;;;20.32;57.80;95214.50;2058787;28;1082;-62
2022/06/14 04:59:32;;;;;;;;;;;;;;;20.31;58.22;95210.16;2058602;28;958;-61
2022/06/14 05:00:36;;;;;;;;;;;;;;;20.28;57.63;95218.59;2058643;28;1176;-61
2022/06/14 05:01:45;;;;;;;;;;;;;;;20.25;58.03;95214.47;2058736;28;1089;-59
2022/06/14 05:02:50;;;;;;;;;;;;;;;20.24;58.15;95223.50;2058620;28;1098;-60
2022/06/14 05:03:55;;;;;;;;;;;;;;;20.25;57.95;95214.47;2058406;28;1102;-60
2022/06/14 05:04:59;;;;;;;;;;;;;;;20.25;58.00;95209.13;2056819;28;2043;-61
2022/06/14 05:06:06;;;;;;;;;;;;;;;20.25;57.76;95222.47;2046947;28;1196;-60
2022/06/14 05:07:11;;;;;;;;;;;;;;;20.25;57.79;95211.81;2057678;28;1058;-59
2022/06/14 05:08:22;;;;;;;;;;;;;;;20.29;57.99;95215.72;2058512;28;1094;-59
2022/06/14 05:09:27;;;;;;;;;;;;;;;20.24;57.78;95212.84;2057870;28;1105;-60
2022/06/14 05:10:32;;;;;;;;;;;;;;;20.28;57.50;95215.91;2058311;28;1078;-60
2022/06/14 05:11:39;;;;;;;;;;;;;;;20.40;57.54;95218.81;2058758;28;1068;-60
2022/06/14 05:12:45;;;;;;;;;;;;;;;20.40;57.99;95221.50;2058678;28;1069;-59
2022/06/14 05:13:51;;;;;;;;;;;;;;;20.37;57.70;95216.56;2058661;28;1105;-59
2022/06/14 05:14:55;;;;;;;;;;;;;;;20.38;57.51;95219.03;2058662;28;1077;-62
2022/06/14 05:15:59;;;;;;;;;;;;;;;20.78;59.83;95224.34;2058606;28;1085;-59
2022/06/14 05:17:11;;;;;;;;;;;;;;;20.84;60.01;95212.84;2053791;28;1310;-58
2022/06/14 05:18:16;;;;;;;;;;;;;;;21.00;59.65;95222.28;2055825;28;1941;-59
2022/06/14 05:19:21;;;;;;;;;;;;;;;21.12;57.77;95225.13;2058419;28;1157;-60
2022/06/14 05:20:28;;;;;;;;;;;;;;;21.09;57.52;95222.88;2058694;28;943;-60
2022/06/14 05:21:32;;;;;;;;;;;;;;;21.03;58.30;95221.84;2058338;28;1110;-60
2022/06/14 05:22:38;;;;;;;;;;;;;;;20.99;58.53;95223.28;2058590;28;1038;-59
2022/06/14 05:23:43;;;;;;;;;;;;;;;20.96;58.53;95215.69;2058530;28;1049;-59
2022/06/14 05:24:45;;;;;;;;;;;;;;;20.90;58.07;95220.00;2058406;28;1096;-60
2022/06/14 05:25:53;;;;;;;;;;;;;;;20.87;58.22;95209.75;2057992;28;1016;-58
2022/06/14 05:27:06;;;;;;;;;;;;;;;20.95;58.28;95206.03;2058497;28;974;-60
2022/06/14 05:28:10;;;;;;;;;;;;;;;21.03;58.02;95205.81;2053841;28;1037;-59
2022/06/14 05:29:17;;;;;;;;;;;;;;;21.08;57.83;95219.34;2053361;28;1649;-59
2022/06/14 05:30:26;;;;;;;;;;;;;;;21.14;58.29;95218.53;2058206;28;1011;-58
2022/06/14 05:31:33;;;;;;;;;;;;;;;21.20;58.52;95216.91;2058165;28;1906;-59
2022/06/14 05:32:40;;;;;;;;;;;;;;;21.27;57.89;95211.53;2058503;28;1055;-60
2022/06/14 05:33:47;;;;;;;;;;;;;;;21.31;57.87;95218.06;2057918;28;1089;-60
2022/06/14 05:34:56;;;;;;;;;;;;;;;21.35;57.98;95232.69;2058201;28;979;-59
2022/06/14 05:36:04;;;;;;;;;;;;;;;21.38;58.50;95229.56;2058158;28;1086;-59
2022/06/14 05:37:13;;;;;;;;;;;;;;;21.41;58.31;95237.16;2056730;28;1683;-60
2022/06/14 05:38:20;;;;;;;;;;;;;;;21.44;58.03;95232.22;2058297;28;1094;-60
2022/06/14 05:39:27;;;;;;;;;;;;;;;21.47;58.03;95236.31;2053747;28;1041;-58
2022/06/14 05:40:35;;;;;;;;;;;;;;;21.49;58.37;95236.94;2052640;28;1499;-60
2022/06/14 05:41:41;;;;;;;;;;;;;;;21.60;56.96;95238.94;2058366;28;1046;-59
2022/06/14 05:42:46;;;;;;;;;;;;;;;21.75;56.20;95229.81;2058202;28;1094;-60
2022/06/14 05:43:49;;;;;;;;;;;;;;;21.76;57.18;95239.47;2058353;28;1015;-59
2022/06/14 05:44:54;;;;;;;;;;;;;;;21.71;57.63;95237.44;2058074;28;1166;-59
2022/06/14 05:45:59;;;;;;;;;;;;;;;21.68;57.87;95236.03;2058221;28;1018;-59
2022/06/14 05:47:04;;;;;;;;;;;;;;;21.68;58.29;95235.19;2058312;28;1069;-57
2022/06/14 05:48:09;;;;;;;;;;;;;;;21.67;58.17;95237.06;2057859;28;1094;-60
2022/06/14 05:49:15;;;;;;;;;;;;;;;21.65;58.59;95236.47;2058035;28;1106;-60
2022/06/14 05:50:19;;;;;;;;;;;;;;;21.64;58.19;95237.47;2058025;28;1018;-57
2022/06/14 05:51:24;;;;;;;;;;;;;;;21.66;58.72;95248.78;2049288;28;1902;-53
2022/06/14 05:52:28;;;;;;;;;;;;;;;21.67;58.90;95236.22;2057857;28;1375;-60